MSC Carolina — 3ECV5 — position and weather

sailwx.info

Track history (hours):
 
Tides and Currents Weather Stations Pressure Air Temp Water Temp Dewpoint Dewpoint Depression Visibility Wind Speed Wind Dir Waves Ship Positions

MSC Carolina

Last reported at 2016-Aug-20 20:33 UTC. Time now 2016-Aug-28 12:14 UTC.
Position N 37°56' E 015°33'.

Length 275 m; draft 14.2 m.

Type: Ship (hazmat cat B). MMSI: 371475000.

Date/timePositionNaut miles runAvg speedWind from/ knotsBaromVisibWave heightAir tempDewpointWater temp
2016-Aug-20 20:33N 37°56' E 015°33'1818.0
2016-Aug-20 19:33N 38°13' E 015°36'1514.8
2016-Aug-20 18:33N 38°24' E 015°49'5 5.2
2016-Aug-20 17:33N 38°27' E 015°54'0 0.0
2016-Aug-20 16:34N 38°27' E 015°54'0 0.0
2016-Aug-20 15:22N 38°27' E 015°54'0 0.0
2016-Aug-20 13:06N 38°27' E 015°54'0 0.0
2016-Aug-20 12:10N 38°27' E 015°54'0 0.0
2016-Aug-20 11:34N 38°27' E 015°54'0 0.0
2016-Aug-20 10:33N 38°27' E 015°54'0 0.0
2016-Aug-20 09:25N 38°27' E 015°54'0 0.0
2016-Aug-20 04:33N 38°27' E 015°54'0 0.0
2016-Aug-20 03:33N 38°27' E 015°54'0 0.0
2016-Aug-19 18:30N 38°27' E 015°54'3 2.5
2016-Aug-19 17:29N 38°27' E 015°51'13116.5
2016-Aug-19 09:31N 39°56' E 013°46'27219.0
2016-Aug-18 19:11N 43°18' E 009°42'1219.8
2016-Aug-18 18:33N 43°30' E 009°45'2019.6
2016-Aug-18 17:33N 43°49' E 009°49'1716.7
2016-Aug-18 16:33N 44°06' E 009°51'0 0.5
2016-Aug-18 15:33N 44°06' E 009°51'0 0.0
2016-Aug-18 14:33N 44°06' E 009°51'0 0.0
2016-Aug-18 13:33N 44°06' E 009°51'0 0.0
2016-Aug-18 12:33N 44°06' E 009°51'0 0.0
2016-Aug-18 11:33N 44°06' E 009°51'0 0.0
2016-Aug-18 10:33N 44°06' E 009°51'0 0.0
2016-Aug-18 09:33N 44°06' E 009°51'0 0.0
2016-Aug-18 08:33N 44°06' E 009°51'0 0.0
2016-Aug-18 07:34N 44°06' E 009°51'0 0.0
2016-Aug-18 06:33N 44°06' E 009°51'0 0.0
2016-Aug-18 05:33N 44°06' E 009°51'0 0.0
2016-Aug-18 04:33N 44°06' E 009°51'0 0.0
2016-Aug-18 03:33N 44°06' E 009°51'0 0.0
2016-Aug-18 02:33N 44°06' E 009°51'0 0.1
2016-Aug-18 01:33N 44°06' E 009°51'7 7.3
2016-Aug-18 00:34N 43°59' E 009°49'2120.8
2016-Aug-17 23:34N 43°49' E 009°24'2120.9
2016-Aug-17 22:34N 43°40' E 008°58'2020.5
2016-Aug-17 21:34N 43°32' E 008°32'15419.0
2016-Aug-17 13:27N 43°10' E 005°02'1516.6
2016-Aug-17 12:33N 43°24' E 004°54'3 1.1
2016-Aug-17 09:33N 43°25' E 004°50'0 0.0
2016-Aug-17 08:33N 43°25' E 004°50'0 0.0
2016-Aug-17 07:32N 43°25' E 004°50'0 0.0
2016-Aug-17 06:30N 43°25' E 004°50'0 0.0
2016-Aug-17 05:33N 43°25' E 004°50'0 0.0
2016-Aug-17 04:31N 43°25' E 004°50'0 0.0
2016-Aug-17 03:33N 43°25' E 004°50'0 0.0
2016-Aug-17 02:33N 43°25' E 004°50'0 0.0
2016-Aug-17 01:30N 43°25' E 004°50'0 0.0
2016-Aug-17 00:32N 43°25' E 004°50'0 0.0
2016-Aug-16 23:33N 43°25' E 004°50'0 0.0
2016-Aug-16 22:33N 43°25' E 004°50'0 0.0
2016-Aug-16 21:33N 43°25' E 004°50'0 0.0
2016-Aug-16 20:33N 43°25' E 004°50'0 0.0
2016-Aug-16 19:32N 43°25' E 004°50'0 0.0
2016-Aug-16 18:31N 43°25' E 004°50'0 0.0
2016-Aug-16 17:33N 43°25' E 004°50'0 0.0
2016-Aug-16 16:33N 43°25' E 004°50'0 0.0
2016-Aug-16 15:33N 43°25' E 004°50'0 0.0
2016-Aug-16 14:33N 43°25' E 004°50'0 0.0
2016-Aug-16 13:33N 43°25' E 004°50'0 0.0
2016-Aug-16 12:33N 43°25' E 004°50'0 0.0
2016-Aug-16 11:33N 43°25' E 004°50'0 0.0
2016-Aug-16 10:33N 43°25' E 004°50'0 0.0
2016-Aug-16 09:33N 43°25' E 004°50'0 0.0
2016-Aug-16 07:31N 43°25' E 004°50'0 0.0
2016-Aug-16 04:33N 43°25' E 004°50'0 0.2
2016-Aug-16 03:34N 43°25' E 004°50'7 7.2
2016-Aug-16 02:33N 43°21' E 004°58'2410.5
2016-Aug-16 00:17N 42°58' E 004°50'4616.1
2016-Aug-15 21:25N 42°21' E 004°12'3016.2
2016-Aug-15 19:33N 41°56' E 003°48'6516.2
2016-Aug-15 15:32N 41°05' E 002°55'1616.1
2016-Aug-15 14:34N 40°52' E 002°43'1616.2
2016-Aug-15 13:33N 40°39' E 002°30'1616.3
2016-Aug-15 12:34N 40°26' E 002°17'1716.6
2016-Aug-15 11:33N 40°13' E 002°04'1717.1
2016-Aug-15 10:33N 39°59' E 001°50'3516.8
2016-Aug-15 08:29N 39°31' E 001°24'9618.2
2016-Aug-15 03:12N 38°14' E 000°09'1420.3
2016-Aug-15 02:29N 38°03' W 000°02'27719.5
2016-Aug-14 12:17N 36°00' W 005°13'18819.4
2016-Aug-14 02:33N 36°30' W 009°04'5919.5
2016-Aug-13 23:32N 37°19' W 009°44'2121.5
2016-Aug-13 22:33N 37°40' W 009°50'2221.7
2016-Aug-13 21:33N 38°01' W 009°57'2121.3
2016-Aug-13 20:33N 38°22' W 010°02'2121.4
2016-Aug-13 19:33N 38°43' W 010°07'2121.3
2016-Aug-13 18:33N 39°04' W 010°07'2121.5
2016-Aug-13 17:33N 39°26' W 010°07'59720.6
2016-Aug-12 12:33N 48°52' W 005°47'2320.2
2016-Aug-12 11:26N 49°04' W 005°18'6319.5
2016-Aug-12 08:13N 49°37' W 003°55'1320.0
2016-Aug-12 07:33N 49°44' W 003°39'2020.1
2016-Aug-12 06:33N 49°55' W 003°12'4419.4
2016-Aug-12 04:18N 50°03' W 002°06'1418.6
2016-Aug-12 03:32N 50°00' W 001°44'1717.1
2016-Aug-12 02:33N 49°57' W 001°18'2617.7
2016-Aug-12 01:03N 49°43' W 000°43'918.4
2016-Aug-12 00:33N 49°39' W 000°31'1818.5
2016-Aug-11 23:33N 49°31' W 000°05'10 9.5
2016-Aug-11 22:33N 49°28' E 000°09'0 0.0
2016-Aug-11 21:33N 49°28' E 000°09'0 0.0
2016-Aug-11 20:33N 49°28' E 000°09'0 0.0
2016-Aug-11 19:33N 49°28' E 000°09'0 0.0
2016-Aug-11 18:33N 49°28' E 000°09'0 0.0
2016-Aug-11 17:33N 49°28' E 000°09'0 0.0
2016-Aug-11 16:34N 49°28' E 000°09'0 0.0
2016-Aug-11 15:33N 49°28' E 000°09'0 0.0
2016-Aug-11 14:34N 49°28' E 000°09'0 0.0
2016-Aug-11 13:33N 49°28' E 000°09'0 0.0
2016-Aug-11 12:33N 49°28' E 000°09'0 0.0
2016-Aug-11 11:33N 49°28' E 000°09'0 0.0
2016-Aug-11 10:33N 49°28' E 000°09'9 9.2
2016-Aug-11 09:33N 49°31' W 000°05'5 4.8
2016-Aug-11 08:33N 49°33' W 000°11'8 7.8
2016-Aug-11 07:33N 49°38' W 000°21'8 8.0
2016-Aug-11 06:33N 49°44' W 000°29'1212.1
2016-Aug-11 05:33N 49°54' W 000°19'1313.5
2016-Aug-11 04:34N 50°06' W 000°09'2014.9
2016-Aug-11 03:12N 50°26' W 000°03'1013.7
2016-Aug-11 02:30N 50°31' E 000°10'5814.7
2016-Aug-10 22:33N 51°01' E 001°27'1616.0
2016-Aug-10 21:33N 51°13' E 001°44'1515.5
2016-Aug-10 20:33N 51°25' E 001°60'  
Track history (hours):
 
Tides and Currents Weather Stations Pressure Air Temp Water Temp Dewpoint Dewpoint Depression Visibility Wind Speed Wind Dir Waves Ship Positions

MSC Carolina

Last reported at 2016-Aug-20 20:33 UTC. Time now 2016-Aug-28 12:14 UTC.
Position N 37°56' E 015°33'.

Length 275 m; draft 14.2 m.

Type: Ship (hazmat cat B). MMSI: 371475000.

Date/timePositionNaut miles runAvg speedWind from/ knotsBaromVisibWave heightAir tempDewpointWater temp
2016-Aug-20 20:33N 37°56' E 015°33'1818.0
2016-Aug-20 19:33N 38°13' E 015°36'1514.8
2016-Aug-20 18:33N 38°24' E 015°49'5 5.2
2016-Aug-20 17:33N 38°27' E 015°54'0 0.0
2016-Aug-20 16:34N 38°27' E 015°54'0 0.0
2016-Aug-20 15:22N 38°27' E 015°54'0 0.0
2016-Aug-20 13:06N 38°27' E 015°54'0 0.0
2016-Aug-20 12:10N 38°27' E 015°54'0 0.0
2016-Aug-20 11:34N 38°27' E 015°54'0 0.0
2016-Aug-20 10:33N 38°27' E 015°54'0 0.0
2016-Aug-20 09:25N 38°27' E 015°54'0 0.0
2016-Aug-20 04:33N 38°27' E 015°54'0 0.0
2016-Aug-20 03:33N 38°27' E 015°54'0 0.0
2016-Aug-19 18:30N 38°27' E 015°54'3 2.5
2016-Aug-19 17:29N 38°27' E 015°51'13116.5
2016-Aug-19 09:31N 39°56' E 013°46'27219.0
2016-Aug-18 19:11N 43°18' E 009°42'1219.8
2016-Aug-18 18:33N 43°30' E 009°45'2019.6
2016-Aug-18 17:33N 43°49' E 009°49'1716.7
2016-Aug-18 16:33N 44°06' E 009°51'0 0.5
2016-Aug-18 15:33N 44°06' E 009°51'0 0.0
2016-Aug-18 14:33N 44°06' E 009°51'0 0.0
2016-Aug-18 13:33N 44°06' E 009°51'0 0.0
2016-Aug-18 12:33N 44°06' E 009°51'0 0.0
2016-Aug-18 11:33N 44°06' E 009°51'0 0.0
2016-Aug-18 10:33N 44°06' E 009°51'0 0.0
2016-Aug-18 09:33N 44°06' E 009°51'0 0.0
2016-Aug-18 08:33N 44°06' E 009°51'0 0.0
2016-Aug-18 07:34N 44°06' E 009°51'0 0.0
2016-Aug-18 06:33N 44°06' E 009°51'0 0.0
2016-Aug-18 05:33N 44°06' E 009°51'0 0.0
2016-Aug-18 04:33N 44°06' E 009°51'0 0.0
2016-Aug-18 03:33N 44°06' E 009°51'0 0.0
2016-Aug-18 02:33N 44°06' E 009°51'0 0.1
2016-Aug-18 01:33N 44°06' E 009°51'7 7.3
2016-Aug-18 00:34N 43°59' E 009°49'2120.8
2016-Aug-17 23:34N 43°49' E 009°24'2120.9
2016-Aug-17 22:34N 43°40' E 008°58'2020.5
2016-Aug-17 21:34N 43°32' E 008°32'15419.0
2016-Aug-17 13:27N 43°10' E 005°02'1516.6
2016-Aug-17 12:33N 43°24' E 004°54'3 1.1
2016-Aug-17 09:33N 43°25' E 004°50'0 0.0
2016-Aug-17 08:33N 43°25' E 004°50'0 0.0
2016-Aug-17 07:32N 43°25' E 004°50'0 0.0
2016-Aug-17 06:30N 43°25' E 004°50'0 0.0
2016-Aug-17 05:33N 43°25' E 004°50'0 0.0
2016-Aug-17 04:31N 43°25' E 004°50'0 0.0
2016-Aug-17 03:33N 43°25' E 004°50'0 0.0
2016-Aug-17 02:33N 43°25' E 004°50'0 0.0
2016-Aug-17 01:30N 43°25' E 004°50'0 0.0
2016-Aug-17 00:32N 43°25' E 004°50'0 0.0
2016-Aug-16 23:33N 43°25' E 004°50'0 0.0
2016-Aug-16 22:33N 43°25' E 004°50'0 0.0
2016-Aug-16 21:33N 43°25' E 004°50'0 0.0
2016-Aug-16 20:33N 43°25' E 004°50'0 0.0
2016-Aug-16 19:32N 43°25' E 004°50'0 0.0
2016-Aug-16 18:31N 43°25' E 004°50'0 0.0
2016-Aug-16 17:33N 43°25' E 004°50'0 0.0
2016-Aug-16 16:33N 43°25' E 004°50'0 0.0
2016-Aug-16 15:33N 43°25' E 004°50'0 0.0
2016-Aug-16 14:33N 43°25' E 004°50'0 0.0
2016-Aug-16 13:33N 43°25' E 004°50'0 0.0
2016-Aug-16 12:33N 43°25' E 004°50'0 0.0
2016-Aug-16 11:33N 43°25' E 004°50'0 0.0
2016-Aug-16 10:33N 43°25' E 004°50'0 0.0
2016-Aug-16 09:33N 43°25' E 004°50'0 0.0
2016-Aug-16 07:31N 43°25' E 004°50'0 0.0
2016-Aug-16 04:33N 43°25' E 004°50'0 0.2
2016-Aug-16 03:34N 43°25' E 004°50'7 7.2
2016-Aug-16 02:33N 43°21' E 004°58'2410.5
2016-Aug-16 00:17N 42°58' E 004°50'4616.1
2016-Aug-15 21:25N 42°21' E 004°12'3016.2
2016-Aug-15 19:33N 41°56' E 003°48'6516.2
2016-Aug-15 15:32N 41°05' E 002°55'1616.1
2016-Aug-15 14:34N 40°52' E 002°43'1616.2
2016-Aug-15 13:33N 40°39' E 002°30'1616.3
2016-Aug-15 12:34N 40°26' E 002°17'1716.6
2016-Aug-15 11:33N 40°13' E 002°04'1717.1
2016-Aug-15 10:33N 39°59' E 001°50'3516.8
2016-Aug-15 08:29N 39°31' E 001°24'9618.2
2016-Aug-15 03:12N 38°14' E 000°09'1420.3
2016-Aug-15 02:29N 38°03' W 000°02'27719.5
2016-Aug-14 12:17N 36°00' W 005°13'18819.4
2016-Aug-14 02:33N 36°30' W 009°04'5919.5
2016-Aug-13 23:32N 37°19' W 009°44'2121.5
2016-Aug-13 22:33N 37°40' W 009°50'2221.7
2016-Aug-13 21:33N 38°01' W 009°57'2121.3
2016-Aug-13 20:33N 38°22' W 010°02'2121.4
2016-Aug-13 19:33N 38°43' W 010°07'2121.3
2016-Aug-13 18:33N 39°04' W 010°07'2121.5
2016-Aug-13 17:33N 39°26' W 010°07'59720.6
2016-Aug-12 12:33N 48°52' W 005°47'2320.2
2016-Aug-12 11:26N 49°04' W 005°18'6319.5
2016-Aug-12 08:13N 49°37' W 003°55'1320.0
2016-Aug-12 07:33N 49°44' W 003°39'2020.1
2016-Aug-12 06:33N 49°55' W 003°12'4419.4
2016-Aug-12 04:18N 50°03' W 002°06'1418.6
2016-Aug-12 03:32N 50°00' W 001°44'1717.1
2016-Aug-12 02:33N 49°57' W 001°18'2617.7
2016-Aug-12 01:03N 49°43' W 000°43'918.4
2016-Aug-12 00:33N 49°39' W 000°31'1818.5
2016-Aug-11 23:33N 49°31' W 000°05'10 9.5
2016-Aug-11 22:33N 49°28' E 000°09'0 0.0
2016-Aug-11 21:33N 49°28' E 000°09'0 0.0
2016-Aug-11 20:33N 49°28' E 000°09'0 0.0
2016-Aug-11 19:33N 49°28' E 000°09'0 0.0
2016-Aug-11 18:33N 49°28' E 000°09'0 0.0
2016-Aug-11 17:33N 49°28' E 000°09'0 0.0
2016-Aug-11 16:34N 49°28' E 000°09'0 0.0
2016-Aug-11 15:33N 49°28' E 000°09'0 0.0
2016-Aug-11 14:34N 49°28' E 000°09'0 0.0
2016-Aug-11 13:33N 49°28' E 000°09'0 0.0
2016-Aug-11 12:33N 49°28' E 000°09'0 0.0
2016-Aug-11 11:33N 49°28' E 000°09'0 0.0
2016-Aug-11 10:33N 49°28' E 000°09'9 9.2
2016-Aug-11 09:33N 49°31' W 000°05'5 4.8
2016-Aug-11 08:33N 49°33' W 000°11'8 7.8
2016-Aug-11 07:33N 49°38' W 000°21'8 8.0
2016-Aug-11 06:33N 49°44' W 000°29'1212.1
2016-Aug-11 05:33N 49°54' W 000°19'1313.5
2016-Aug-11 04:34N 50°06' W 000°09'2014.9
2016-Aug-11 03:12N 50°26' W 000°03'1013.7
2016-Aug-11 02:30N 50°31' E 000°10'5814.7
2016-Aug-10 22:33N 51°01' E 001°27'1616.0
2016-Aug-10 21:33N 51°13' E 001°44'1515.5
2016-Aug-10 20:33N 51°25' E 001°60'  

Dump ship's entire track history